Time;durP1;ratioP1;P1;durP2;ratioP2;P2;SDS_P1;SDS_P2;PMS_P1;PMS_P2;Temp;Humidity;BMP_temperature;BMP_pressure;BME280_temperature;BME280_humidity;BME280_pressure;Samples;Min_cycle;Max_cycle;Signal;HPM_P1;HPM_P2
2022/04/29 00:02:06;;;;;;;23.95;10.43;;;;;;;9.90;80.08;102829.56;5105933;27;20023;-64
2022/04/29 00:04:32;;;;;;;25.20;10.00;;;;;;;9.81;80.36;102823.94;5105322;28;20024;-64
2022/04/29 00:06:58;;;;;;;24.15;10.10;;;;;;;9.87;80.63;102817.16;5105719;28;20027;-64
2022/04/29 00:09:24;;;;;;;25.30;10.05;;;;;;;9.85;80.37;102821.47;5103871;28;20032;-64
2022/04/29 00:11:50;;;;;;;24.50;9.63;;;;;;;9.83;80.54;102814.31;5104079;28;20031;-64
2022/04/29 00:14:15;;;;;;;23.40;9.80;;;;;;;9.84;80.68;102821.41;5106649;28;20024;-64
2022/04/29 00:16:41;;;;;;;23.67;10.18;;;;;;;9.71;81.25;102807.75;5104937;28;20069;-64
2022/04/29 00:19:06;;;;;;;23.40;10.23;;;;;;;9.73;81.45;102808.69;5105676;28;20044;-63
2022/04/29 00:21:32;;;;;;;23.80;10.13;;;;;;;9.71;81.57;102815.66;5106086;28;20492;-64
2022/04/29 00:23:57;;;;;;;24.88;10.32;;;;;;;9.69;82.11;102816.44;5104038;28;20024;-64
2022/04/29 00:26:22;;;;;;;23.48;10.02;;;;;;;9.73;81.73;102813.97;5107071;28;20054;-64
2022/04/29 00:28:48;;;;;;;23.00;10.00;;;;;;;9.76;81.34;102814.09;5103754;28;20107;-63
2022/04/29 00:31:13;;;;;;;24.90;10.07;;;;;;;9.74;81.66;102818.44;5106212;28;20028;-64
2022/04/29 00:33:38;;;;;;;24.42;10.55;;;;;;;9.60;81.92;102814.34;5104985;27;20066;-63
2022/04/29 00:36:04;;;;;;;25.02;10.85;;;;;;;9.57;82.40;102814.22;5104981;28;20028;-64
2022/04/29 00:38:29;;;;;;;23.83;10.30;;;;;;;9.56;82.87;102822.97;5106372;28;20082;-64
2022/04/29 00:40:54;;;;;;;27.92;10.52;;;;;;;9.52;83.25;102808.75;5103267;28;20019;-64
2022/04/29 00:43:20;;;;;;;23.80;10.48;;;;;;;9.41;83.78;102810.97;5106837;28;20439;-63
2022/04/29 00:45:45;;;;;;;25.52;10.50;;;;;;;9.41;84.03;102805.69;5103829;28;20562;-64
2022/04/29 00:48:11;;;;;;;23.95;10.05;;;;;;;9.47;83.95;102794.47;5105681;28;20107;-64
2022/04/29 00:50:36;;;;;;;24.45;10.90;;;;;;;9.29;84.83;102805.19;5104978;28;20053;-65
2022/04/29 00:53:03;;;;;;;24.17;10.45;;;;;;;9.19;85.05;102800.38;5104179;28;20038;-63
2022/04/29 00:55:30;;;;;;;24.70;10.55;;;;;;;9.23;85.41;102802.28;5106060;28;20035;-63
2022/04/29 00:58:06;;;;;;;25.05;10.82;;;;;;;9.08;86.35;102799.91;5102915;28;20031;-63
2022/04/29 01:00:32;;;;;;;24.83;10.20;;;;;;;9.07;86.65;102799.03;5105655;28;20459;-64
2022/04/29 01:03:00;;;;;;;23.45;10.60;;;;;;;9.07;86.31;102801.66;5103313;28;20059;-64
2022/04/29 01:05:25;;;;;;;23.90;10.40;;;;;;;9.07;86.40;102809.59;5106541;28;20447;-63
2022/04/29 01:07:51;;;;;;;23.70;10.30;;;;;;;8.89;87.39;102801.78;5103110;28;20363;-64
2022/04/29 01:10:20;;;;;;;23.45;10.65;;;;;;;8.88;87.86;102796.44;5105986;28;20031;-64
2022/04/29 01:12:48;;;;;;;24.50;9.98;;;;;;;8.81;87.88;102799.66;5103393;28;20031;-64
2022/04/29 01:15:17;;;;;;;25.20;10.23;;;;;;;8.64;88.74;102791.94;5105133;28;20032;-64
2022/04/29 01:17:45;;;;;;;22.42;10.32;;;;;;;8.66;88.91;102806.06;5103754;28;20030;-63
2022/04/29 01:20:13;;;;;;;24.55;10.38;;;;;;;8.70;89.47;102794.81;5104819;28;20039;-63
2022/04/29 01:22:39;;;;;;;24.65;10.32;;;;;;;8.66;89.32;102790.25;5100379;28;20051;-64
2022/04/29 01:25:04;;;;;;;23.63;9.82;;;;;;;8.59;90.11;102780.28;5103633;28;20047;-64
2022/04/29 01:27:30;;;;;;;25.05;10.57;;;;;;;8.51;91.06;102776.41;5105480;28;20031;-64
2022/04/29 01:30:02;;;;;;;24.42;10.30;;;;;;;8.36;92.70;102781.88;5102378;28;20429;-63
2022/04/29 01:32:30;;;;;;;24.95;10.82;;;;;;;8.41;92.89;102766.28;5105416;28;20016;-64
2022/04/29 01:34:56;;;;;;;24.15;10.40;;;;;;;8.28;93.28;102764.81;5102142;28;20455;-63
2022/04/29 01:37:21;;;;;;;23.70;10.35;;;;;;;8.27;94.22;102761.31;5104859;27;20030;-64
2022/04/29 01:39:47;;;;;;;23.75;10.57;;;;;;;8.20;94.31;102762.75;5104298;28;20482;-65
2022/04/29 01:42:12;;;;;;;23.30;10.07;;;;;;;8.30;94.60;102771.06;5102774;28;20429;-64
2022/04/29 01:44:37;;;;;;;23.40;10.18;;;;;;;8.25;94.36;102770.84;5103296;28;20070;-65
2022/04/29 01:47:03;;;;;;;24.42;10.57;;;;;;;8.27;94.42;102758.66;5105904;28;20031;-64
2022/04/29 01:49:28;;;;;;;23.52;10.45;;;;;;;8.23;94.29;102764.63;5102336;28;20027;-64
2022/04/29 01:51:55;;;;;;;25.77;10.48;;;;;;;8.21;94.40;102758.38;5104713;28;20462;-63
2022/04/29 01:54:20;;;;;;;22.60;10.38;;;;;;;8.18;94.09;102756.53;5103655;28;20057;-64
2022/04/29 01:56:47;;;;;;;26.42;11.13;;;;;;;8.23;94.21;102754.09;5103471;28;20036;-64
2022/04/29 01:59:13;;;;;;;24.90;10.77;;;;;;;8.19;94.62;102758.31;5104153;28;20457;-64
2022/04/29 02:01:39;;;;;;;24.13;10.45;;;;;;;8.11;94.85;102757.06;5102466;28;20035;-64
2022/04/29 02:04:04;;;;;;;23.67;10.57;;;;;;;8.09;94.99;102764.00;5105130;28;20032;-65
2022/04/29 02:06:30;;;;;;;24.08;10.45;;;;;;;8.12;95.17;102768.50;5102289;28;20024;-64
2022/04/29 02:08:55;;;;;;;22.98;10.52;;;;;;;8.03;95.37;102761.97;5103380;28;20165;-65
2022/04/29 02:11:21;;;;;;;25.70;11.18;;;;;;;7.99;95.72;102757.44;5102820;28;20028;-64
2022/04/29 02:13:47;;;;;;;25.38;11.20;;;;;;;7.94;96.13;102760.69;5103233;28;20028;-65
2022/04/29 02:16:13;;;;;;;25.63;10.80;;;;;;;8.05;96.61;102766.44;5103906;28;20129;-66
2022/04/29 02:18:39;;;;;;;24.35;10.57;;;;;;;8.01;96.53;102758.38;5101969;28;20032;-67
2022/04/29 02:21:05;;;;;;;24.65;11.13;;;;;;;7.96;96.98;102757.25;5104626;28;20028;-65
2022/04/29 02:23:30;;;;;;;25.42;11.50;;;;;;;7.85;97.55;102754.16;5101447;28;20032;-66
2022/04/29 02:25:57;;;;;;;23.77;10.45;;;;;;;7.95;97.61;102755.47;5104170;28;20067;-64
2022/04/29 02:28:23;;;;;;;25.95;11.30;;;;;;;7.88;97.72;102761.28;5102577;28;20020;-66
2022/04/29 02:30:49;;;;;;;26.95;11.45;;;;;;;7.82;98.17;102748.75;5103177;28;20035;-65
2022/04/29 02:33:14;;;;;;;26.50;11.52;;;;;;;7.82;99.02;102754.00;5103610;28;20038;-66
2022/04/29 02:35:39;;;;;;;25.30;11.35;;;;;;;7.77;99.20;102757.25;5101869;28;20032;-65
2022/04/29 02:38:05;;;;;;;25.58;11.40;;;;;;;7.81;99.41;102756.56;5104890;28;20355;-65
2022/04/29 02:40:30;;;;;;;24.83;11.32;;;;;;;7.80;99.20;102750.38;5101316;28;20481;-65
2022/04/29 02:42:55;;;;;;;26.75;11.30;;;;;;;7.68;100.00;102748.09;5104066;28;20110;-66
2022/04/29 02:45:21;;;;;;;25.48;11.02;;;;;;;7.70;100.00;102747.28;5102459;28;20079;-64
2022/04/29 02:47:46;;;;;;;24.55;11.82;;;;;;;7.64;100.00;102748.78;5102867;28;20492;-65
2022/04/29 02:50:12;;;;;;;27.00;11.32;;;;;;;7.58;100.00;102755.50;5104188;28;20023;-65
2022/04/29 02:52:37;;;;;;;26.48;12.10;;;;;;;7.55;100.00;102752.72;5101485;28;20070;-64
2022/04/29 02:55:02;;;;;;;25.50;11.55;;;;;;;7.59;100.00;102755.56;5104747;28;20024;-63
2022/04/29 02:57:28;;;;;;;24.65;11.15;;;;;;;7.59;100.00;102755.56;5101258;28;20032;-64
2022/04/29 02:59:55;;;;;;;26.30;12.00;;;;;;;7.57;100.00;102751.97;5103576;28;20019;-64
2022/04/29 03:02:20;;;;;;;26.17;11.63;;;;;;;7.55;100.00;102752.72;5102667;28;20061;-63
2022/04/29 03:04:45;;;;;;;25.60;11.80;;;;;;;7.54;100.00;102757.06;5102270;28;20024;-63
2022/04/29 03:07:11;;;;;;;25.38;12.00;;;;;;;7.54;100.00;102749.19;5103846;28;20102;-64
2022/04/29 03:09:36;;;;;;;26.75;11.93;;;;;;;7.53;100.00;102743.84;5101078;28;20080;-65
2022/04/29 03:12:01;;;;;;;26.23;11.98;;;;;;;7.50;100.00;102726.19;5104455;28;20039;-64
2022/04/29 03:14:28;;;;;;;26.02;12.00;;;;;;;7.53;100.00;102730.69;5101463;28;20545;-63
2022/04/29 03:16:53;;;;;;;24.67;11.82;;;;;;;7.44;100.00;102724.19;5102025;28;20028;-64
2022/04/29 03:19:18;;;;;;;26.33;12.43;;;;;;;7.34;100.00;102719.31;5104918;28;20370;-65
2022/04/29 03:21:44;;;;;;;25.23;12.38;;;;;;;7.31;100.00;102712.16;5101106;28;20059;-64
2022/04/29 03:24:09;;;;;;;26.38;12.52;;;;;;;7.28;100.00;102712.03;5100072;28;20110;-64
2022/04/29 03:26:35;;;;;;;26.35;12.25;;;;;;;7.25;100.00;102716.22;5103445;28;20028;-63
2022/04/29 03:29:01;;;;;;;28.52;12.63;;;;;;;7.27;100.00;102726.00;5102138;28;20016;-63
2022/04/29 03:31:27;;;;;;;27.02;12.63;;;;;;;7.23;100.00;102724.03;5102361;28;20032;-64
2022/04/29 03:33:52;;;;;;;27.73;12.38;;;;;;;7.18;100.00;102725.56;5106268;28;20019;-63
2022/04/29 03:36:17;;;;;;;26.17;12.85;;;;;;;7.20;100.00;102728.28;5105024;28;20016;-64
2022/04/29 03:38:43;;;;;;;25.10;11.93;;;;;;;7.22;100.00;102731.88;5108101;28;20038;-63
2022/04/29 03:41:08;;;;;;;28.92;14.27;;;;;;;7.17;100.00;102734.28;5104852;28;20466;-63
2022/04/29 03:43:34;;;;;;;26.90;12.88;;;;;;;7.18;100.00;102736.09;5107070;28;20028;-64
2022/04/29 03:46:00;;;;;;;26.65;12.52;;;;;;;7.30;100.00;102747.19;5105724;28;20078;-64
2022/04/29 03:48:25;;;;;;;28.30;13.18;;;;;;;7.27;100.00;102735.63;5105610;28;20034;-64
2022/04/29 03:50:51;;;;;;;26.63;12.80;;;;;;;7.26;100.00;102732.06;5107098;28;20105;-64
2022/04/29 03:53:16;;;;;;;28.95;12.70;;;;;;;7.21;100.00;102723.09;5104462;28;20057;-65
2022/04/29 03:55:42;;;;;;;26.73;13.02;;;;;;;7.14;100.00;102719.25;5107644;28;20038;-64
2022/04/29 03:58:07;;;;;;;26.05;12.95;;;;;;;7.11;100.00;102721.72;5104767;27;20039;-63
2022/04/29 04:00:33;;;;;;;26.42;13.57;;;;;;;7.08;100.00;102729.47;5106413;28;20058;-63
2022/04/29 04:03:00;;;;;;;25.50;13.35;;;;;;;7.08;100.00;102725.94;5105846;28;20111;-63
2022/04/29 04:05:25;;;;;;;27.67;13.27;;;;;;;7.14;100.00;102731.50;5104294;28;20517;-63
2022/04/29 04:07:51;;;;;;;27.42;13.00;;;;;;;7.07;100.00;102738.19;5106898;28;20036;-63
2022/04/29 04:10:16;;;;;;;26.70;13.05;;;;;;;7.03;100.00;102730.06;5104146;28;20052;-63
2022/04/29 04:12:50;;;;;;;27.23;13.43;;;;;;;6.95;100.00;102722.72;5106327;28;20085;-64
2022/04/29 04:15:18;;;;;;;27.58;13.93;;;;;;;6.94;100.00;102723.53;5103511;28;20027;-63
2022/04/29 04:17:44;;;;;;;27.88;13.77;;;;;;;6.95;100.00;102722.72;5103999;28;20032;-64
2022/04/29 04:20:11;;;;;;;28.73;13.60;;;;;;;6.89;100.00;102729.41;5107204;28;20024;-63
2022/04/29 04:22:37;;;;;;;26.75;13.43;;;;;;;6.82;100.00;102724.66;5104289;28;20421;-63
2022/04/29 04:25:04;;;;;;;26.35;13.48;;;;;;;6.72;100.00;102718.03;5105941;28;20023;-63
2022/04/29 04:27:31;;;;;;;25.80;13.32;;;;;;;6.81;100.00;102715.88;5105184;28;20501;-63
2022/04/29 04:29:57;;;;;;;26.40;13.45;;;;;;;6.80;100.00;102711.41;5105048;28;20067;-64
2022/04/29 04:32:22;;;;;;;27.23;13.70;;;;;;;6.83;100.00;102716.88;5105905;28;20024;-64
2022/04/29 04:34:50;;;;;;;28.45;14.23;;;;;;;6.80;100.00;102717.59;5103828;28;20025;-63
2022/04/29 04:37:23;;;;;;;29.17;13.63;;;;;;;6.78;100.00;102720.97;5106977;28;20019;-64
2022/04/29 04:39:49;;;;;;;29.35;13.57;;;;;;;6.77;100.00;102721.78;5103807;28;20425;-63
2022/04/29 04:42:16;;;;;;;29.55;14.23;;;;;;;6.69;100.00;102728.41;5107044;28;20056;-64
2022/04/29 04:44:41;;;;;;;28.60;14.32;;;;;;;6.70;100.00;102717.97;5102474;28;20489;-64
2022/04/29 04:47:07;;;;;;;27.40;14.18;;;;;;;6.73;100.00;102714.59;5105892;28;20093;-63
2022/04/29 04:49:33;;;;;;;27.90;15.05;;;;;;;6.69;100.00;102710.00;5104537;27;20026;-63
2022/04/29 04:51:58;;;;;;;29.42;15.15;;;;;;;6.66;100.00;102713.38;5104795;28;20467;-64
2022/04/29 04:54:24;;;;;;;28.73;14.82;;;;;;;6.68;100.00;102711.72;5105430;28;20038;-64
2022/04/29 04:56:49;;;;;;;28.70;14.68;;;;;;;6.65;100.00;102715.94;5103544;28;20463;-65
2022/04/29 04:59:17;;;;;;;29.60;14.60;;;;;;;6.64;100.00;102709.78;5106721;28;20478;-64
2022/04/29 05:01:42;;;;;;;26.77;14.52;;;;;;;6.66;100.00;102713.38;5102848;28;20028;-64
2022/04/29 05:04:08;;;;;;;29.08;14.65;;;;;;;6.65;100.00;102710.69;5106230;28;20019;-63
2022/04/29 05:06:36;;;;;;;28.30;14.95;;;;;;;6.68;100.00;102716.09;5103905;28;20050;-63
2022/04/29 05:09:02;;;;;;;30.17;15.02;;;;;;;6.73;100.00;102714.59;5105086;28;20032;-64
2022/04/29 05:11:27;;;;;;;29.02;15.00;;;;;;;6.77;100.00;102706.94;5104940;28;20027;-63
2022/04/29 05:13:53;;;;;;;28.40;14.70;;;;;;;6.77;100.00;102713.91;5103428;28;20043;-65
2022/04/29 05:16:18;;;;;;;30.17;15.50;;;;;;;6.82;100.00;102716.78;5105800;28;20028;-64
2022/04/29 05:18:43;;;;;;;28.02;14.52;;;;;;;6.83;100.00;102711.59;5102997;28;20028;-64
2022/04/29 05:21:08;;;;;;;30.80;15.07;;;;;;;6.82;100.00;102714.16;5105827;28;20027;-63
2022/04/29 05:23:36;;;;;;;29.55;15.60;;;;;;;6.82;100.00;102712.41;5103870;28;20102;-63
2022/04/29 05:26:02;;;;;;;29.17;15.63;;;;;;;6.92;100.00;102716.41;5104633;28;20081;-64
2022/04/29 05:28:27;;;;;;;31.60;15.57;;;;;;;6.97;100.00;102721.06;5100544;28;20040;-64
2022/04/29 05:30:52;;;;;;;30.52;15.88;;;;;;;6.96;100.00;102716.63;5103443;28;20027;-64
2022/04/29 05:33:18;;;;;;;31.48;15.38;;;;;;;7.02;100.00;102723.00;5102409;28;20031;-64
2022/04/29 05:35:43;;;;;;;30.08;15.63;;;;;;;7.07;100.00;102725.03;5104373;28;20024;-63
2022/04/29 05:38:09;;;;;;;31.80;15.80;;;;;;;7.19;100.00;102722.09;5104154;28;20065;-67
2022/04/29 05:43:18;;;;;;;30.10;14.68;;;;;;;7.16;100.00;102721.94;5102768;28;20073;-65
2022/04/29 05:45:43;;;;;;;29.55;15.60;;;;;;;7.15;100.00;102721.06;5107089;28;20558;-64
2022/04/29 05:48:09;;;;;;;30.85;15.98;;;;;;;7.15;100.00;102714.91;5113583;28;20568;-67
2022/04/29 05:50:34;;;;;;;33.90;15.63;;;;;;;7.23;100.00;102717.91;5113304;28;20019;-67
2022/04/29 05:52:59;;;;;;;30.10;16.02;;;;;;;7.33;100.00;102720.13;5112934;28;20084;-65
2022/04/29 05:55:25;;;;;;;30.65;15.73;;;;;;;7.32;100.00;102736.75;5112426;28;20389;-66
2022/04/29 05:57:51;;;;;;;29.67;15.30;;;;;;;7.39;100.00;102733.56;5112906;28;20020;-67
2022/04/29 06:00:16;;;;;;;31.33;15.55;;;;;;;7.39;100.00;102737.94;5113267;28;20055;-67
2022/04/29 06:02:43;;;;;;;30.52;16.02;;;;;;;7.46;100.00;102742.66;5113253;28;20531;-66
2022/04/29 06:05:09;;;;;;;30.38;15.80;;;;;;;7.47;100.00;102742.75;5112299;28;20031;-67
2022/04/29 06:07:34;;;;;;;30.08;15.52;;;;;;;7.49;100.00;102743.69;5112724;28;20379;-68
2022/04/29 06:10:00;;;;;;;30.88;16.30;;;;;;;7.59;100.00;102745.03;5112839;27;20050;-66
2022/04/29 06:12:26;;;;;;;30.95;15.50;;;;;;;7.62;100.00;102739.91;5112917;28;20035;-67
2022/04/29 06:14:52;;;;;;;30.45;15.23;;;;;;;7.70;100.00;102742.91;5112134;28;20039;-68
2022/04/29 06:17:18;;;;;;;28.98;15.27;;;;;;;7.70;100.00;102739.38;5112502;28;20084;-66
2022/04/29 06:19:43;;;;;;;29.63;15.88;;;;;;;7.81;100.00;102743.41;5112323;28;20024;-67
2022/04/29 06:22:08;;;;;;;32.60;15.93;;;;;;;7.89;100.00;102747.28;5112553;28;20031;-69
2022/04/29 06:24:34;;;;;;;31.10;16.25;;;;;;;7.90;100.00;102756.09;5112074;28;20087;-70
2022/04/29 06:27:01;;;;;;;31.13;15.45;;;;;;;7.99;100.00;102752.16;5110357;28;20036;-70
2022/04/29 06:29:26;;;;;;;29.83;15.68;;;;;;;8.07;100.00;102752.50;5112408;28;20422;-69
2022/04/29 06:31:52;;;;;;;29.80;15.70;;;;;;;8.16;100.00;102752.91;5112264;28;20081;-69
2022/04/29 06:34:17;;;;;;;29.33;15.10;;;;;;;8.19;100.00;102749.50;5106075;28;20043;-70
2022/04/29 06:36:42;;;;;;;28.80;15.13;;;;;;;8.23;100.00;102756.72;5107653;28;20535;-69
2022/04/29 06:39:08;;;;;;;30.38;15.18;;;;;;;8.26;100.00;102755.97;5110856;28;20039;-67
2022/04/29 06:41:35;;;;;;;27.92;15.93;;;;;;;8.28;100.00;102763.06;5112570;28;20454;-69
2022/04/29 06:44:00;;;;;;;31.10;16.08;;;;;;;8.29;100.00;102762.25;5110486;28;20542;-67
2022/04/29 06:46:26;;;;;;;31.42;16.20;;;;;;;8.35;100.00;102751.09;5111859;28;20032;-68
2022/04/29 06:48:55;;;;;;;28.63;16.20;;;;;;;8.41;100.00;102759.25;5111570;28;20072;-69
2022/04/29 06:51:25;;;;;;;31.40;16.17;;;;;;;8.45;100.00;102750.69;5111728;28;20030;-67
2022/04/29 06:53:51;;;;;;;29.58;16.08;;;;;;;8.50;100.00;102751.81;5109518;28;20979;-66
2022/04/29 06:56:16;;;;;;;31.23;16.23;;;;;;;8.46;100.00;102754.22;5112004;28;20024;-70
2022/04/29 06:58:42;;;;;;;29.13;16.15;;;;;;;8.60;100.00;102760.97;5112002;28;20031;-69
2022/04/29 07:01:07;;;;;;;30.67;15.63;;;;;;;8.70;100.00;102772.84;5111579;28;20479;-70
2022/04/29 07:03:33;;;;;;;28.77;16.13;;;;;;;8.84;100.00;102761.13;5111673;28;20028;-73
2022/04/29 07:06:00;;;;;;;30.17;15.73;;;;;;;8.86;99.88;102764.72;5112008;28;20026;-69
2022/04/29 07:08:28;;;;;;;32.42;16.00;;;;;;;8.92;96.22;102766.72;5113234;28;20043;-67
2022/04/29 07:10:55;;;;;;;30.83;16.98;;;;;;;9.03;97.70;102764.53;5116093;28;20038;-69
2022/04/29 07:13:20;;;;;;;30.67;15.65;;;;;;;9.18;96.75;102761.63;5116162;27;20024;-65
2022/04/29 07:15:48;;;;;;;28.98;15.75;;;;;;;9.37;96.32;102756.22;5115448;28;20043;-64
2022/04/29 07:18:14;;;;;;;30.42;15.90;;;;;;;9.42;94.63;102769.59;5116338;28;20054;-65
2022/04/29 07:20:40;;;;;;;30.58;15.65;;;;;;;9.54;93.86;102763.94;5116529;28;20024;-65
2022/04/29 07:23:05;;;;;;;30.83;15.73;;;;;;;9.67;93.40;102763.56;5116014;28;20814;-65
2022/04/29 07:25:31;;;;;;;31.02;15.88;;;;;;;9.72;91.23;102754.06;5115287;28;20034;-64
2022/04/29 07:27:56;;;;;;;29.73;15.82;;;;;;;9.89;91.83;102757.34;5115578;28;20073;-65
2022/04/29 07:30:21;;;;;;;29.50;16.10;;;;;;;10.24;88.63;102759.50;5115683;28;20101;-65
2022/04/29 07:32:47;;;;;;;30.98;16.02;;;;;;;10.30;86.94;102765.00;5116258;27;20039;-64
2022/04/29 07:43:25;;;;;;;31.95;15.80;;;;;;;10.94;81.26;102750.50;5113596;28;20918;-64
2022/04/29 07:45:54;;;;;;;28.25;14.80;;;;;;;11.06;77.51;102752.63;5114918;28;20118;-65
2022/04/29 07:48:20;;;;;;;28.85;15.05;;;;;;;11.16;76.78;102756.50;5115479;28;20016;-64
2022/04/29 07:50:46;;;;;;;30.25;15.65;;;;;;;11.28;76.85;102761.28;5115573;28;20048;-64
2022/04/29 07:53:13;;;;;;;28.27;15.32;;;;;;;11.31;76.97;102764.03;5112246;28;20107;-64
2022/04/29 07:55:39;;;;;;;29.30;15.38;;;;;;;11.42;75.80;102767.03;5114791;28;20065;-64
2022/04/29 07:58:04;;;;;;;33.67;15.98;;;;;;;11.49;77.07;102753.13;5114310;28;20422;-64
2022/04/29 08:00:33;;;;;;;29.98;15.48;;;;;;;11.59;76.76;102762.22;5105872;28;20035;-65
2022/04/29 08:03:01;;;;;;;32.33;16.30;;;;;;;11.79;75.18;102763.72;5106055;28;20463;-64
2022/04/29 08:05:30;;;;;;;29.40;16.05;;;;;;;11.90;72.67;102771.09;5105951;28;20032;-65
2022/04/29 08:07:59;;;;;;;28.83;15.43;;;;;;;12.06;72.52;102769.81;5105358;28;20017;-64
2022/04/29 08:10:29;;;;;;;31.48;16.38;;;;;;;11.98;71.54;102773.16;5106017;28;20073;-64
2022/04/29 08:12:57;;;;;;;29.60;16.08;;;;;;;12.21;71.64;102770.28;5106418;28;20047;-64
2022/04/29 08:15:23;;;;;;;30.67;15.68;;;;;;;12.31;69.71;102771.44;5105082;28;20383;-64
2022/04/29 08:17:49;;;;;;;29.90;15.35;;;;;;;12.54;69.68;102765.00;5106299;28;20020;-64
2022/04/29 08:20:14;;;;;;;29.92;15.40;;;;;;;12.90;68.62;102766.81;5103569;28;20024;-64
2022/04/29 08:22:40;;;;;;;29.15;15.77;;;;;;;12.96;66.00;102763.44;5107162;28;20028;-65
2022/04/29 08:25:06;;;;;;;28.90;14.85;;;;;;;12.81;65.70;102769.22;5104581;28;20028;-64
2022/04/29 08:27:31;;;;;;;27.45;15.25;;;;;;;13.15;64.94;102769.16;5106295;28;20115;-64
2022/04/29 08:29:57;;;;;;;29.42;15.35;;;;;;;13.15;65.56;102769.16;5105457;28;20097;-64
2022/04/29 08:32:22;;;;;;;28.63;15.30;;;;;;;13.15;66.28;102770.09;5104471;28;20466;-64
2022/04/29 08:34:49;;;;;;;29.77;15.40;;;;;;;12.99;65.57;102778.50;5107907;27;20031;-64
2022/04/29 08:37:14;;;;;;;31.40;15.45;;;;;;;12.80;66.24;102783.38;5111819;28;20103;-65
2022/04/29 08:39:39;;;;;;;32.45;16.27;;;;;;;12.73;65.79;102784.06;5114677;28;20073;-65
2022/04/29 08:42:05;;;;;;;27.90;15.80;;;;;;;12.85;65.88;102775.53;5114144;28;20016;-64
2022/04/29 08:44:33;;;;;;;33.45;18.20;;;;;;;12.91;65.90;102770.34;5114229;28;20117;-64
2022/04/29 08:46:58;;;;;;;30.08;15.57;;;;;;;12.99;65.32;102767.88;5114430;28;20027;-64
2022/04/29 08:49:25;;;;;;;34.72;16.23;;;;;;;13.12;65.90;102764.69;5114041;28;20022;-65
2022/04/29 08:51:51;;;;;;;28.17;15.30;;;;;;;13.23;64.51;102765.81;5112966;28;20458;-64
2022/04/29 08:59:51;;;;;;;29.35;15.52;;;;;;;13.57;63.56;102763.09;5112238;28;20097;-65
2022/04/29 09:02:16;;;;;;;32.20;17.40;;;;;;;13.64;63.03;102757.03;5113980;28;20028;-65
2022/04/29 09:04:42;;;;;;;30.50;15.55;;;;;;;13.80;63.21;102758.28;5113041;28;20026;-68
2022/04/29 09:07:09;;;;;;;30.25;16.40;;;;;;;13.86;62.15;102746.88;5113924;28;20016;-66
2022/04/29 09:09:35;;;;;;;31.10;16.27;;;;;;;13.81;62.53;102746.78;5114156;28;20053;-64
2022/04/29 09:12:17;;;;;;;31.20;16.48;;;;;;;13.81;63.45;102757.41;5112724;28;20024;-65
2022/04/29 09:14:42;;;;;;;30.73;15.63;;;;;;;13.78;62.81;102768.88;5113956;28;20031;-65
2022/04/29 09:17:25;;;;;;;29.33;14.65;;;;;;;14.09;61.92;102769.50;5114062;28;20424;-65
2022/04/29 09:19:51;;;;;;;28.55;14.95;;;;;;;14.12;61.96;102763.38;5113655;28;20420;-65
2022/04/29 09:22:16;;;;;;;29.90;14.90;;;;;;;14.22;61.01;102770.66;5113012;28;20023;-64
2022/04/29 09:24:41;;;;;;;29.23;14.25;;;;;;;14.31;60.66;102764.63;5113476;28;20023;-68
2022/04/29 09:27:07;;;;;;;29.75;14.45;;;;;;;14.50;61.18;102768.53;5114087;28;20060;-65
2022/04/29 09:29:42;;;;;;;28.50;14.77;;;;;;;14.84;60.09;102776.25;5113791;28;20377;-65
2022/04/29 09:32:08;;;;;;;28.77;14.25;;;;;;;15.06;58.69;102780.19;5113053;27;20028;-65
2022/04/29 09:34:50;;;;;;;27.98;14.52;;;;;;;15.31;58.75;102777.03;5111800;28;20023;-66
2022/04/29 09:37:18;;;;;;;28.35;14.13;;;;;;;15.24;57.52;102779.59;5109910;28;20110;-65
2022/04/29 09:40:13;;;;;;;28.13;14.75;;;;;;;15.15;58.85;102783.88;5112805;28;20422;-66
2022/04/29 09:42:40;;;;;;;29.38;15.05;;;;;;;14.71;58.64;102786.69;5070433;28;20052;-65
2022/04/29 09:45:15;;;;;;;29.00;14.20;;;;;;;14.51;59.76;102782.75;5069936;28;20123;-65
2022/04/29 09:47:40;;;;;;;28.85;14.55;;;;;;;14.26;59.63;102782.28;5069773;28;20131;-64
2022/04/29 09:50:06;;;;;;;29.75;14.40;;;;;;;14.10;60.81;102767.78;5070105;28;20445;-64
2022/04/29 09:52:38;;;;;;;28.30;15.13;;;;;;;13.86;61.71;102773.47;5070262;28;20457;-65
2022/04/29 09:55:14;;;;;;;30.60;15.25;;;;;;;13.81;63.15;102769.81;5069896;28;20051;-65
2022/04/29 09:57:47;;;;;;;28.65;14.90;;;;;;;13.78;62.83;102773.31;5070058;28;20169;-65
2022/04/29 10:00:13;;;;;;;29.98;14.63;;;;;;;13.69;63.30;102770.44;5069185;28;20052;-64
2022/04/29 10:02:41;;;;;;;32.08;16.33;;;;;;;13.59;62.55;102764.94;5069979;28;20117;-65
2022/04/29 10:05:07;;;;;;;28.20;15.07;;;;;;;13.57;63.95;102756.03;5069963;28;20468;-64
2022/04/29 10:07:33;;;;;;;28.65;15.55;;;;;;;13.44;63.79;102756.63;5070335;28;20086;-65
2022/04/29 10:09:59;;;;;;;29.35;15.57;;;;;;;13.35;63.80;102759.06;5069678;28;20021;-65
2022/04/29 10:12:27;;;;;;;31.88;16.27;;;;;;;13.13;64.78;102754.97;5069465;28;20053;-64
2022/04/29 10:14:59;;;;;;;28.20;15.75;;;;;;;13.10;65.75;102758.44;5053476;28;20115;-64
2022/04/29 10:23:15;;;;;;;30.27;15.75;;;;;;;13.24;66.37;102745.50;5082627;28;20574;-64
2022/04/29 10:25:43;;;;;;;31.10;15.93;;;;;;;13.35;64.29;102746.69;5079015;28;20119;-64
2022/04/29 10:28:10;;;;;;;28.67;14.70;;;;;;;13.36;64.63;102739.59;5078941;28;20036;-64
2022/04/29 10:30:38;;;;;;;30.85;15.90;;;;;;;13.39;65.30;102744.97;5082177;28;20493;-64
2022/04/29 10:33:11;;;;;;;27.80;14.80;;;;;;;13.49;63.42;102749.63;5079336;28;20192;-64
2022/04/29 10:35:39;;;;;;;28.05;14.70;;;;;;;13.57;64.13;102741.84;5082692;28;20027;-64
2022/04/29 10:38:14;;;;;;;29.60;16.55;;;;;;;13.73;63.71;102743.06;5079596;28;20032;-65
2022/04/29 10:40:39;;;;;;;32.42;16.13;;;;;;;13.91;63.52;102748.78;5079391;28;20036;-65
2022/04/29 10:43:09;;;;;;;32.38;15.65;;;;;;;14.07;63.21;102743.78;5081750;28;20081;-64
2022/04/29 10:45:36;;;;;;;28.40;15.10;;;;;;;14.11;62.21;102749.19;5078506;28;20543;-64
2022/04/29 10:48:30;;;;;;;28.42;15.32;;;;;;;14.25;62.52;102744.13;5078780;28;20115;-64
2022/04/29 10:50:56;;;;;;;28.25;14.68;;;;;;;14.22;62.04;102740.53;5081445;28;20055;-65
2022/04/29 10:53:23;;;;;;;29.90;15.98;;;;;;;14.21;62.25;102742.28;5079883;28;20031;-64
2022/04/29 10:55:49;;;;;;;28.42;14.20;;;;;;;14.03;61.79;102748.13;5089300;28;20036;-64
2022/04/29 10:58:23;;;;;;;28.95;14.25;;;;;;;13.88;63.13;102743.41;5101980;28;20106;-65
2022/04/29 11:00:56;;;;;;;28.70;14.40;;;;;;;13.78;63.52;102742.31;5102782;28;20017;-65
2022/04/29 11:03:47;;;;;;;30.52;14.35;;;;;;;13.84;63.28;102736.22;5102436;28;20055;-64
2022/04/29 11:06:14;;;;;;;27.77;14.07;;;;;;;13.86;63.30;102731.84;5102052;28;20031;-64
2022/04/29 11:08:41;;;;;;;29.90;14.65;;;;;;;13.94;62.98;102729.34;5103743;28;20051;-64
2022/04/29 11:11:07;;;;;;;28.02;14.20;;;;;;;13.97;62.55;102725.84;5100681;28;20059;-64
2022/04/29 11:13:43;;;;;;;28.08;13.45;;;;;;;14.14;62.49;102732.41;5104575;28;20042;-64
2022/04/29 11:16:16;;;;;;;29.40;13.70;;;;;;;14.22;62.03;102727.22;5101064;28;20031;-64
2022/04/29 11:18:43;;;;;;;28.30;13.88;;;;;;;14.42;61.33;102715.19;5103689;28;20032;-64
2022/04/29 11:26:49;;;;;;;27.48;14.05;;;;;;;14.98;59.78;102719.72;5102198;28;20074;-65
2022/04/29 11:29:17;;;;;;;29.95;13.50;;;;;;;15.13;58.27;102724.38;5103000;28;20052;-65
2022/04/29 11:31:42;;;;;;;28.10;13.35;;;;;;;15.40;58.66;102722.09;5101537;28;20081;-65
2022/04/29 11:34:15;;;;;;;27.20;13.10;;;;;;;15.71;56.96;102725.16;5103522;28;20031;-65
2022/04/29 11:36:41;;;;;;;30.15;13.10;;;;;;;16.14;56.18;102717.72;5103935;28;20027;-64
2022/04/29 11:39:19;;;;;;;27.25;13.25;;;;;;;16.70;56.28;102722.72;5104007;28;20073;-68